FAGGFAPE

Guest
Details From FAGG - George
To FAPE - Port Elizabeth
Flight Number -
Tags Generated
Created
Modified
Stats Distance 161 nm / 298 km
Max Altitude 0 ft / 0 m
Waypoints 2
Social Downloads 3
Likes 0
Share VATSIM

Download

Looking for another format? Having issues loading an existing format? Contact us
Advertisement - Login to hide

Notes

Generated

Route

FAGG FAPE

ID Type Via Altitude Latitude Longitude Leg Dist Tot Dist Heading (true) Name
O FAGG APT - 0 ft / 0 m -34.01160˚ 22.37894˚ - 0 nm - George
O FAPE APT - 0 ft / 0 m -33.98913˚ 25.60542˚ 160 nm 160 nm 90° / 89° Port Elizabeth

Altitude Profile

Advertisement - Login to hide

FAGG

Details ICAO FAGG (GRJ)
Name George
Region South Africa
Timezone Africa/Johannesburg (UTC+2.0)
Stats Elevation 648 ft / 198 m (AMSL)
Location -34.005531° 22.378515°
Runways 1
Magnetic Variation 26.977° W

METAR

FAGG 170200Z AUTO 14006KT 9999 BKN002/// BKN012/// OVC029/// 16/16 Q1016

Decode

TAF

TAF FAGG 162200Z 1700/1724 13006KT 9999 SCT008 BKN030 PROB30 TEMPO 1700/1704 3000 BR BKN004 FM170400 12012KT 8000 -RA FEW004 BKN008 BKN015 TEMPO 1706/1720 4000 RA BKN004 TX19/1712Z TN15/1704Z

Decode

Departure Runways

ID Width Length Bearing (true) Bearing (mag) Surface Threshold Offset Overrun Length
11 148 ft / 45 m 6,568 ft / 2,002 m 87.84° 114.82° Asphalt 0 ft / 0 m 197 ft / 60 m
29 148 ft / 45 m 6,568 ft / 2,002 m 267.82° 294.80° Asphalt 0 ft / 0 m 196 ft / 60 m

FAPE

Details ICAO FAPE (PLZ)
Name Port Elizabeth
Region South Africa
Timezone Africa/Johannesburg (UTC+2.0)
Stats Elevation 226 ft / 69 m (AMSL)
Location -33.988941° 25.614335°
Runways 3
Magnetic Variation 28.498° W

METAR

FAPE 170200Z 21007KT 9999 FEW013 SCT033 17/15 Q1016 NOSIG

Decode

TAF

TAF FAPE 162200Z 1700/1724 20005KT 9999 FEW020 BECMG 1701/1703 BKN014 PROB30 TEMPO 1706/1712 3500 RA BKN010 BECMG 1710/1712 BKN020 PROB40 TEMPO 1712/1718 6000 -RA BKN014 TX20/1712Z TN15/1703Z

Decode

Destination Runways

ID Width Length Bearing (true) Bearing (mag) Surface Threshold Offset Overrun Length
08 151 ft / 46 m 6,502 ft / 1,982 m 58.13° 86.63° Asphalt 0 ft / 0 m 295 ft / 90 m
10 60 ft / 18 m 3,898 ft / 1,188 m 81.21° 109.71° Grass 0 ft / 0 m 132 ft / 40 m
17 151 ft / 46 m 5,507 ft / 1,679 m 145.70° 174.20° Asphalt 0 ft / 0 m 197 ft / 60 m
26 151 ft / 46 m 6,502 ft / 1,982 m 238.11° 266.61° Asphalt 0 ft / 0 m 0 ft / 0 m
28 60 ft / 18 m 3,898 ft / 1,188 m 261.21° 289.71° Grass 0 ft / 0 m 0 ft / 0 m
35 151 ft / 46 m 5,507 ft / 1,679 m 325.70° 354.20° Asphalt 0 ft / 0 m 0 ft / 0 m

Approach Navaids

Runway Type Ident Frequency Range Bearing (true) Bearing (mag) Slope Elevation
08 Localiser PEI 111.10 MHz 18 nm / 33 km 58.06° 86.56° - 226 ft / 69 m (AMSL)
08 Glidescope PEI 111.10 MHz 10 nm / 19 km 58.12° 86.62° 3.00° 20 ft / 6 m (AMSL)
26 Localiser PDI 109.50 MHz 18 nm / 33 km 238.07° 266.57° - 226 ft / 69 m (AMSL)
26 Glidescope PDI 109.50 MHz 10 nm / 19 km 238.12° 266.62° 3.00° 20 ft / 6 m (AMSL)

Popular Alternatives